TimeCST,TemperatureF,Dew PointF,Humidity,Sea Level PressureIn,VisibilityMPH,Wind Direction,Wind SpeedMPH,Gust SpeedMPH,PrecipitationIn,Events,Conditions,WindDirDegrees,DateUTC
12:15 AM,21.2,14.0,74,30.30,7.0,East,3.5,-,N/A,Snow,Light Snow,100,2013-01-27 06:15:00
12:35 AM,21.2,15.8,80,30.29,10.0,SE,4.6,-,N/A,,Overcast,130,2013-01-27 06:35:00
12:55 AM,21.2,15.8,80,30.28,10.0,SE,6.9,-,N/A,,Overcast,140,2013-01-27 06:55:00
1:15 AM,23.0,15.8,74,30.28,10.0,SSE,4.6,-,N/A,,Overcast,160,2013-01-27 07:15:00
1:35 AM,23.0,15.8,74,30.29,10.0,South,4.6,-,N/A,,Overcast,170,2013-01-27 07:35:00
1:55 AM,23.0,15.8,74,30.28,10.0,SSE,6.9,-,N/A,,Overcast,150,2013-01-27 07:55:00
2:15 AM,23.0,15.8,74,30.28,10.0,SSE,6.9,-,N/A,,Overcast,160,2013-01-27 08:15:00
2:35 AM,23.0,15.8,74,30.29,10.0,South,5.8,-,N/A,,Overcast,170,2013-01-27 08:35:00
2:55 AM,23.0,15.8,74,30.28,10.0,South,4.6,-,N/A,,Overcast,170,2013-01-27 08:55:00
3:15 AM,23.0,15.8,74,30.27,10.0,South,4.6,-,N/A,,Overcast,170,2013-01-27 09:15:00
3:35 AM,23.0,15.8,74,30.26,10.0,South,5.8,-,N/A,,Overcast,180,2013-01-27 09:35:00
3:55 AM,23.0,15.8,74,30.26,10.0,South,5.8,-,N/A,,Overcast,170,2013-01-27 09:55:00
4:15 AM,23.0,15.8,74,30.25,10.0,South,6.9,-,N/A,,Overcast,170,2013-01-27 10:15:00
4:35 AM,23.0,15.8,74,30.24,10.0,SSE,5.8,-,N/A,,Overcast,160,2013-01-27 10:35:00
4:55 AM,23.0,15.8,74,30.23,10.0,SSE,6.9,-,N/A,,Overcast,160,2013-01-27 10:55:00
5:15 AM,23.0,15.8,74,30.23,10.0,South,8.1,-,N/A,,Overcast,170,2013-01-27 11:15:00
5:35 AM,24.8,15.8,69,30.23,10.0,South,8.1,-,N/A,,Overcast,170,2013-01-27 11:35:00
5:55 AM,24.8,15.8,69,30.22,10.0,South,8.1,-,N/A,,Overcast,170,2013-01-27 11:55:00
6:15 AM,24.8,15.8,69,30.22,10.0,SSE,6.9,-,N/A,,Overcast,160,2013-01-27 12:15:00
6:35 AM,24.8,15.8,69,30.23,10.0,South,5.8,-,N/A,,Overcast,190,2013-01-27 12:35:00
6:55 AM,24.8,15.8,69,30.23,10.0,South,6.9,-,N/A,,Overcast,180,2013-01-27 12:55:00
7:15 AM,24.8,17.6,74,30.22,10.0,South,5.8,-,N/A,,Overcast,180,2013-01-27 13:15:00
7:35 AM,26.6,17.6,69,30.22,10.0,South,8.1,-,N/A,,Overcast,170,2013-01-27 13:35:00
7:55 AM,26.6,17.6,69,30.23,10.0,South,6.9,-,N/A,,Overcast,170,2013-01-27 13:55:00
8:15 AM,26.6,17.6,69,30.22,10.0,South,6.9,-,N/A,,Mostly Cloudy,170,2013-01-27 14:15:00
8:35 AM,26.6,19.4,74,30.23,10.0,South,8.1,-,N/A,,Mostly Cloudy,180,2013-01-27 14:35:00
8:55 AM,26.6,19.4,74,30.23,10.0,South,5.8,-,N/A,,Overcast,180,2013-01-27 14:55:00
9:15 AM,26.6,19.4,74,30.23,10.0,South,8.1,-,N/A,,Overcast,170,2013-01-27 15:15:00
9:35 AM,26.6,19.4,74,30.23,10.0,South,9.2,-,N/A,,Overcast,170,2013-01-27 15:35:00
9:55 AM,28.4,19.4,69,30.23,10.0,South,8.1,-,N/A,,Overcast,180,2013-01-27 15:55:00
10:15 AM,28.4,21.2,74,30.23,10.0,South,9.2,-,N/A,,Overcast,170,2013-01-27 16:15:00
10:35 AM,28.4,21.2,74,30.22,10.0,South,8.1,-,N/A,,Overcast,170,2013-01-27 16:35:00
10:55 AM,28.4,21.2,74,30.21,10.0,South,9.2,-,N/A,,Overcast,170,2013-01-27 16:55:00
11:15 AM,28.4,21.2,74,30.19,10.0,SSE,9.2,-,N/A,,Overcast,160,2013-01-27 17:15:00
11:35 AM,30.2,21.2,69,30.18,10.0,SSE,10.4,-,N/A,,Mostly Cloudy,160,2013-01-27 17:35:00
11:55 AM,30.2,21.2,69,30.16,10.0,South,8.1,-,N/A,,Overcast,170,2013-01-27 17:55:00
12:15 PM,30.2,21.2,69,30.16,10.0,South,6.9,-,N/A,,Mostly Cloudy,170,2013-01-27 18:15:00
12:35 PM,30.2,21.2,69,30.15,10.0,South,8.1,-,N/A,,Overcast,170,2013-01-27 18:35:00
12:55 PM,30.2,23.0,75,30.14,10.0,South,5.8,-,N/A,,Overcast,170,2013-01-27 18:55:00
1:15 PM,30.2,23.0,75,30.14,10.0,SSE,8.1,-,N/A,,Overcast,160,2013-01-27 19:15:00
1:35 PM,30.2,23.0,75,30.12,10.0,SSE,9.2,-,N/A,,Overcast,160,2013-01-27 19:35:00
1:55 PM,30.2,23.0,75,30.12,10.0,SSE,8.1,-,N/A,,Overcast,160,2013-01-27 19:55:00
2:15 PM,30.2,24.8,80,30.12,2.5,South,8.1,-,N/A,Snow,Light Snow,170,2013-01-27 20:15:00
2:35 PM,30.2,26.6,86,30.11,1.5,SSE,6.9,-,N/A,Snow,Light Snow,150,2013-01-27 20:35:00
2:55 PM,30.2,26.6,86,30.11,1.5,SSE,6.9,-,N/A,Snow,Light Snow,150,2013-01-27 20:55:00
3:15 PM,30.2,28.4,93,30.10,1.0,SE,6.9,-,N/A,Snow,Light Snow,140,2013-01-27 21:15:00
3:35 PM,28.4,28.4,100,30.08,0.8,SE,9.2,-,N/A,Snow,Light Snow,140,2013-01-27 21:35:00
3:55 PM,28.4,28.4,100,30.08,0.5,SE,4.6,-,0.01,Snow,Light Snow,130,2013-01-27 21:55:00
4:15 PM,28.4,28.4,100,30.07,0.8,SE,6.9,-,N/A,Snow,Light Snow,130,2013-01-27 22:15:00
4:35 PM,30.2,28.4,93,30.05,0.2,East,8.1,-,0.01,Snow,Snow,90,2013-01-27 22:35:00
4:55 PM,30.2,28.4,93,30.05,0.2,ESE,6.9,-,0.03,Snow,Snow,110,2013-01-27 22:55:00
5:15 PM,30.2,28.4,93,30.03,0.5,East,6.9,-,0.01,Snow,Snow,100,2013-01-27 23:15:00
5:35 PM,30.2,30.2,100,30.02,1.0,East,5.8,-,0.04,Snow,Snow,100,2013-01-27 23:35:00
5:55 PM,30.2,30.2,100,30.01,2.0,ESE,6.9,-,0.05,Snow,Light Snow,110,2013-01-27 23:55:00
6:15 PM,30.2,30.2,100,30.00,2.5,SE,6.9,-,0.01,Snow,Light Snow,130,2013-01-28 00:15:00
6:35 PM,30.2,30.2,100,29.98,4.0,ESE,6.9,-,0.02,Snow,Light Snow,120,2013-01-28 00:35:00
6:55 PM,30.2,30.2,100,29.98,2.0,SE,6.9,-,0.02,Snow,Light Snow,130,2013-01-28 00:55:00
7:15 PM,32.0,30.2,93,29.98,3.0,ESE,6.9,-,0.01,Snow,Light Snow,120,2013-01-28 01:15:00
7:35 PM,32.0,32.0,100,29.96,1.8,ESE,8.1,-,0.01,Snow,Light Snow,120,2013-01-28 01:35:00
7:55 PM,32.0,32.0,100,29.95,2.5,SE,8.1,-,0.02,Snow,Light Snow,130,2013-01-28 01:55:00
8:15 PM,32.0,32.0,100,29.94,3.0,SE,9.2,-,N/A,,Overcast,130,2013-01-28 02:15:00
8:35 PM,32.0,32.0,100,29.92,3.0,SE,8.1,19.6,N/A,,Overcast,140,2013-01-28 02:35:00
8:55 PM,32.0,32.0,100,29.91,3.0,SE,9.2,-,N/A,,Overcast,140,2013-01-28 02:55:00
9:15 PM,32.0,32.0,100,29.91,3.0,SE,11.5,-,N/A,,Overcast,140,2013-01-28 03:15:00
9:35 PM,32.0,32.0,100,29.90,2.5,SSE,8.1,-,N/A,,Overcast,150,2013-01-28 03:35:00
9:55 PM,32.0,32.0,100,29.89,2.5,SSE,10.4,-,N/A,,Overcast,150,2013-01-28 03:55:00
10:15 PM,32.0,32.0,100,29.88,3.0,SSE,11.5,-,N/A,,Overcast,160,2013-01-28 04:15:00
10:35 PM,32.0,32.0,100,29.88,3.0,SSE,8.1,-,N/A,,Overcast,150,2013-01-28 04:35:00
10:55 PM,32.0,32.0,100,29.87,3.0,SSE,8.1,-,N/A,,Overcast,150,2013-01-28 04:55:00
11:15 PM,32.0,32.0,100,29.87,3.0,SSE,9.2,-,N/A,,Overcast,150,2013-01-28 05:15:00
11:35 PM,32.0,32.0,100,29.86,3.0,SSE,8.1,-,N/A,,Overcast,150,2013-01-28 05:35:00
11:55 PM,32.0,32.0,100,29.85,4.0,SSE,6.9,-,N/A,,Overcast,150,2013-01-28 05:55:00